Time;durP1;ratioP1;P1;durP2;ratioP2;P2;SDS_P1;SDS_P2;PMS_P1;PMS_P2;Temp;Humidity;BMP_temperature;BMP_pressure;BME280_temperature;BME280_humidity;BME280_pressure;Samples;Min_cycle;Max_cycle;Signal;HPM_P1;HPM_P2
2023/10/10 00:02:04;;;;;;;;;;;18.40;95.20;;;;;;4187526;28;19932;-48
2023/10/10 00:04:47;;;;;;;;;;;18.40;94.80;;;;;;4180815;28;19994;-50
2023/10/10 00:07:28;;;;;;;;;;;18.40;94.80;;;;;;4191634;28;19931;-48
2023/10/10 00:10:13;;;;;;;;;;;18.40;94.80;;;;;;4195651;28;20306;-52
2023/10/10 00:12:54;;;;;;;;;;;18.40;94.80;;;;;;4192817;28;20378;-48
2023/10/10 00:15:38;;;;;;;;;;;18.40;94.80;;;;;;4200243;28;19956;-52
2023/10/10 00:18:20;;;;;;;;;;;18.40;94.80;;;;;;4177158;28;20078;-49
2023/10/10 00:21:06;;;;;;;;;;;18.40;94.80;;;;;;4181623;28;20070;-48
2023/10/10 00:23:49;;;;;;;;;;;18.30;94.80;;;;;;4195203;28;19947;-48
2023/10/10 00:26:30;;;;;;;;;;;18.40;94.80;;;;;;4197008;28;19931;-48
2023/10/10 00:29:11;;;;;;;;;;;18.40;94.80;;;;;;4194521;28;19942;-48
2023/10/10 00:31:56;;;;;;;;;;;18.40;94.80;;;;;;4193459;28;20065;-48
2023/10/10 00:34:38;;;;;;;;;;;18.40;94.80;;;;;;4194002;28;19938;-48
2023/10/10 00:37:25;;;;;;;;;;;18.30;94.80;;;;;;4196762;28;19989;-48
2023/10/10 00:40:09;;;;;;;;;;;18.40;94.80;;;;;;4183197;28;19935;-49
2023/10/10 00:42:50;;;;;;;;;;;18.30;94.80;;;;;;4202062;28;19931;-50
2023/10/10 00:45:35;;;;;;;;;;;18.30;94.80;;;;;;4202192;28;19935;-48
2023/10/10 00:48:20;;;;;;;;;;;18.40;94.90;;;;;;4181513;28;19973;-48
2023/10/10 00:51:10;;;;;;;;;;;18.40;94.90;;;;;;4188711;28;20563;-48
2023/10/10 00:54:09;;;;;;;;;;;18.30;94.90;;;;;;4195844;28;20498;-48
2023/10/10 00:56:54;;;;;;;;;;;18.30;94.90;;;;;;4185245;28;19931;-48
2023/10/10 00:59:36;;;;;;;;;;;18.30;95.30;;;;;;4196712;28;20061;-49
2023/10/10 01:02:20;;;;;;;;;;;18.30;94.90;;;;;;4193241;28;19947;-49
2023/10/10 01:05:11;;;;;;;;;;;18.30;94.90;;;;;;4186557;28;19952;-50
2023/10/10 01:07:53;;;;;;;;;;;18.30;94.90;;;;;;4181958;28;24851;-48
2023/10/10 01:10:43;;;;;;;;;;;18.30;94.90;;;;;;4203490;28;20005;-48
2023/10/10 01:13:23;;;;;;;;;;;18.30;95.30;;;;;;4190934;28;20033;-48
2023/10/10 01:16:05;;;;;;;;;;;18.30;95.00;;;;;;4187149;28;19977;-48
2023/10/10 01:18:51;;;;;;;;;;;18.30;95.00;;;;;;4196308;28;19942;-48
2023/10/10 01:21:50;;;;;;;;;;;18.30;95.00;;;;;;4196363;28;19935;-49
2023/10/10 01:24:31;;;;;;;;;;;18.30;95.30;;;;;;4203208;28;19983;-53
2023/10/10 01:27:21;;;;;;;;;;;18.30;95.00;;;;;;4200844;28;19946;-48
2023/10/10 01:30:18;;;;;;;;;;;18.30;95.00;;;;;;4187473;28;19931;-48
2023/10/10 01:33:01;;;;;;;;;;;18.30;95.00;;;;;;4176438;28;20410;-48
2023/10/10 01:35:43;;;;;;;;;;;18.30;95.40;;;;;;4179233;28;19938;-47
2023/10/10 01:38:36;;;;;;;;;;;18.30;95.00;;;;;;4196792;28;19935;-48
2023/10/10 01:41:23;;;;;;;;;;;18.30;95.00;;;;;;4201931;28;19938;-49
2023/10/10 01:44:11;;;;;;;;;;;18.30;95.00;;;;;;4189020;28;19960;-48
2023/10/10 01:46:52;;;;;;;;;;;18.30;95.00;;;;;;4185937;28;19935;-47
2023/10/10 01:49:34;;;;;;;;;;;18.30;95.00;;;;;;4185394;28;19999;-49
2023/10/10 01:52:17;;;;;;;;;;;18.30;95.00;;;;;;4196360;28;20438;-51
2023/10/10 01:55:00;;;;;;;;;;;18.30;95.00;;;;;;4196501;28;19936;-49
2023/10/10 01:57:40;;;;;;;;;;;18.30;95.00;;;;;;4184888;28;20032;-49
2023/10/10 02:00:26;;;;;;;;;;;18.30;95.00;;;;;;4195691;28;20069;-48
2023/10/10 02:03:08;;;;;;;;;;;18.30;95.00;;;;;;4176144;28;20331;-49
2023/10/10 02:05:55;;;;;;;;;;;18.30;95.00;;;;;;4194531;28;19943;-49
2023/10/10 02:08:38;;;;;;;;;;;18.30;95.00;;;;;;4197429;28;19930;-50
2023/10/10 02:11:21;;;;;;;;;;;18.30;95.00;;;;;;4191061;28;19931;-48
2023/10/10 02:14:11;;;;;;;;;;;18.30;95.00;;;;;;4181847;28;19931;-47
2023/10/10 02:16:54;;;;;;;;;;;18.30;95.00;;;;;;4177449;28;19935;-50
2023/10/10 02:19:39;;;;;;;;;;;18.30;95.00;;;;;;4192435;28;19935;-48
2023/10/10 02:22:33;;;;;;;;;;;18.30;95.00;;;;;;4205185;28;20374;-51
2023/10/10 02:28:20;;;;;;;;;;;18.30;95.00;;;;;;4199124;28;19930;-47
2023/10/10 02:31:03;;;;;;;;;;;18.30;95.00;;;;;;4193576;28;20614;-50
2023/10/10 02:33:55;;;;;;;;;;;18.30;95.00;;;;;;4199059;28;20016;-48
2023/10/10 02:36:36;;;;;;;;;;;18.30;95.00;;;;;;4180407;28;20406;-49
2023/10/10 02:39:27;;;;;;;;;;;18.30;95.00;;;;;;4196106;28;19961;-50
2023/10/10 02:42:18;;;;;;;;;;;18.30;95.00;;;;;;4190280;28;19939;-48
2023/10/10 02:45:00;;;;;;;;;;;18.30;95.00;;;;;;4189764;28;19935;-48
2023/10/10 02:47:46;;;;;;;;;;;18.30;95.10;;;;;;4203411;28;20289;-50
2023/10/10 02:53:22;;;;;;;;;;;18.30;95.10;;;;;;4196451;28;19932;-47
2023/10/10 02:56:03;;;;;;;;;;;18.30;95.10;;;;;;4181926;28;19931;-49
2023/10/10 02:58:45;;;;;;;;;;;18.30;95.10;;;;;;4201035;28;19951;-48
2023/10/10 03:01:50;;;;;;;;;;;18.30;95.10;;;;;;4189482;28;19965;-48
2023/10/10 03:07:28;;;;;;;;;;;18.30;95.10;;;;;;4179479;28;20406;-49
2023/10/10 03:10:23;;;;;;;;;;;18.30;95.10;;;;;;4190371;28;19967;-49
2023/10/10 03:13:16;;;;;;;;;;;18.20;95.10;;;;;;4181872;28;19939;-48
2023/10/10 03:16:12;;;;;;;;;;;18.30;95.10;;;;;;4184354;28;19931;-47
2023/10/10 03:19:13;;;;;;;;;;;18.30;95.10;;;;;;4182716;28;19931;-48
2023/10/10 03:22:19;;;;;;;;;;;18.30;95.10;;;;;;4195166;28;19935;-53
2023/10/10 03:25:07;;;;;;;;;;;18.30;95.10;;;;;;4186870;28;20488;-50
2023/10/10 03:27:54;;;;;;;;;;;18.30;95.10;;;;;;4161166;28;19932;-50
2023/10/10 03:30:50;;;;;;;;;;;18.30;95.10;;;;;;4168324;28;19986;-48
2023/10/10 03:33:37;;;;;;;;;;;18.30;95.10;;;;;;4160320;28;19936;-51
2023/10/10 03:36:32;;;;;;;;;;;18.30;95.10;;;;;;4167246;28;19974;-49
2023/10/10 03:39:49;;;;;;;;;;;18.30;95.10;;;;;;4166997;28;19936;-47
2023/10/10 05:23:52;;;;;;;;;;;18.30;95.20;;;;;;4199221;28;20282;-48
2023/10/10 05:26:33;;;;;;;;;;;18.30;95.20;;;;;;4197205;28;19935;-50
2023/10/10 05:29:14;;;;;;;;;;;18.30;95.20;;;;;;4195951;28;19931;-50
2023/10/10 05:31:59;;;;;;;;;;;18.30;95.20;;;;;;4199352;28;20287;-48
2023/10/10 05:34:42;;;;;;;;;;;18.30;95.20;;;;;;4199030;28;19961;-48
2023/10/10 05:37:24;;;;;;;;;;;18.30;95.20;;;;;;4194949;28;19931;-49
2023/10/10 05:40:06;;;;;;;;;;;18.30;95.20;;;;;;4195788;28;20283;-47
2023/10/10 05:42:47;;;;;;;;;;;18.30;95.20;;;;;;4195596;28;20065;-47
2023/10/10 05:45:29;;;;;;;;;;;18.30;95.20;;;;;;4196095;28;19973;-47
2023/10/10 05:48:09;;;;;;;;;;;18.30;95.20;;;;;;4182397;28;20017;-47
2023/10/10 05:50:53;;;;;;;;;;;18.30;95.20;;;;;;4201574;28;19947;-50
2023/10/10 05:53:34;;;;;;;;;;;18.20;95.20;;;;;;4195033;28;19932;-50
2023/10/10 05:56:16;;;;;;;;;;;18.30;95.30;;;;;;4190286;28;19932;-47
2023/10/10 05:58:57;;;;;;;;;;;18.30;95.30;;;;;;4196540;28;19971;-52
2023/10/10 06:01:38;;;;;;;;;;;18.30;95.30;;;;;;4201720;28;19982;-46
2023/10/10 06:04:19;;;;;;;;;;;18.30;95.50;;;;;;4198485;28;19935;-47
2023/10/10 06:07:01;;;;;;;;;;;18.20;95.90;;;;;;4191251;28;19931;-47
2023/10/10 06:09:44;;;;;;;;;;;18.30;96.30;;;;;;4202111;28;19935;-55
2023/10/10 06:12:24;;;;;;;;;;;18.30;96.60;;;;;;4199244;28;20040;-49
2023/10/10 06:15:06;;;;;;;;;;;18.30;96.80;;;;;;4178227;28;19932;-48
2023/10/10 06:17:48;;;;;;;;;;;18.30;96.90;;;;;;4195864;28;20061;-51
2023/10/10 06:20:29;;;;;;;;;;;18.30;96.90;;;;;;4185163;28;19935;-49
2023/10/10 06:23:14;;;;;;;;;;;18.30;96.80;;;;;;4199404;28;19998;-49
2023/10/10 06:25:58;;;;;;;;;;;18.30;96.60;;;;;;4195778;28;19935;-52
2023/10/10 06:28:45;;;;;;;;;;;18.30;96.50;;;;;;4195911;28;19935;-49
2023/10/10 06:31:33;;;;;;;;;;;18.30;96.40;;;;;;4201318;28;19931;-48
2023/10/10 06:34:22;;;;;;;;;;;18.30;96.30;;;;;;4197019;28;19935;-50
2023/10/10 06:37:07;;;;;;;;;;;18.30;96.20;;;;;;4198765;28;20008;-48
2023/10/10 06:39:57;;;;;;;;;;;18.30;96.20;;;;;;4194625;28;19973;-48
2023/10/10 06:42:38;;;;;;;;;;;18.30;96.10;;;;;;4201811;28;19931;-48
2023/10/10 06:45:22;;;;;;;;;;;18.30;96.40;;;;;;4184219;28;19946;-50
2023/10/10 06:48:03;;;;;;;;;;;18.30;96.00;;;;;;4196088;28;19948;-50
2023/10/10 06:50:44;;;;;;;;;;;18.30;96.00;;;;;;4194857;28;19948;-50
2023/10/10 06:53:35;;;;;;;;;;;18.30;95.90;;;;;;4195876;28;19974;-49
2023/10/10 06:56:17;;;;;;;;;;;18.30;95.90;;;;;;4203113;28;20042;-49
2023/10/10 06:59:01;;;;;;;;;;;18.30;95.90;;;;;;4180028;28;19960;-50
2023/10/10 07:01:42;;;;;;;;;;;18.30;95.80;;;;;;4179238;28;19932;-49
2023/10/10 07:04:23;;;;;;;;;;;18.30;95.80;;;;;;4199533;28;20278;-49
2023/10/10 07:07:06;;;;;;;;;;;18.30;95.80;;;;;;4201782;28;19934;-49
2023/10/10 07:09:46;;;;;;;;;;;18.30;95.80;;;;;;4202616;28;19931;-49
2023/10/10 07:12:30;;;;;;;;;;;18.30;95.80;;;;;;4198479;28;19931;-50
2023/10/10 07:15:14;;;;;;;;;;;18.30;95.70;;;;;;4192295;28;20271;-49
2023/10/10 07:18:08;;;;;;;;;;;18.30;95.80;;;;;;4194854;28;19931;-47
2023/10/10 07:21:07;;;;;;;;;;;18.30;95.70;;;;;;4192979;28;19947;-49
2023/10/10 07:24:02;;;;;;;;;;;18.30;95.70;;;;;;4186200;28;19943;-52
2023/10/10 07:26:45;;;;;;;;;;;18.30;96.10;;;;;;4192222;28;19932;-50
2023/10/10 07:29:27;;;;;;;;;;;18.30;95.70;;;;;;4198382;28;19935;-49
2023/10/10 07:32:16;;;;;;;;;;;18.30;95.70;;;;;;4197421;28;19940;-49
2023/10/10 07:34:58;;;;;;;;;;;18.30;95.70;;;;;;4193849;28;19976;-50
2023/10/10 07:37:41;;;;;;;;;;;18.30;95.80;;;;;;4194136;28;19978;-50
2023/10/10 07:40:30;;;;;;;;;;;18.30;95.80;;;;;;4201584;28;19970;-49
2023/10/10 07:43:12;;;;;;;;;;;18.40;95.80;;;;;;4197080;28;19931;-49
2023/10/10 07:45:55;;;;;;;;;;;18.40;95.90;;;;;;4186304;28;20017;-48
2023/10/10 07:48:39;;;;;;;;;;;18.40;95.90;;;;;;4201233;28;20028;-48
2023/10/10 07:51:27;;;;;;;;;;;18.40;95.80;;;;;;4199666;28;19935;-49
2023/10/10 07:54:12;;;;;;;;;;;18.40;95.80;;;;;;4196974;28;19969;-50
2023/10/10 07:56:55;;;;;;;;;;;18.40;95.80;;;;;;4197235;28;19995;-50
2023/10/10 07:59:36;;;;;;;;;;;18.40;95.80;;;;;;4196327;28;19935;-48
2023/10/10 08:02:31;;;;;;;;;;;18.40;95.70;;;;;;4195865;28;19935;-47
2023/10/10 08:05:13;;;;;;;;;;;18.50;96.10;;;;;;4194253;28;20270;-49
2023/10/10 08:07:54;;;;;;;;;;;18.50;96.10;;;;;;4197165;28;19943;-50
2023/10/10 08:10:38;;;;;;;;;;;18.50;95.70;;;;;;4201110;28;19931;-52
2023/10/10 08:13:22;;;;;;;;;;;18.50;95.70;;;;;;4201505;28;19935;-51
2023/10/10 08:16:03;;;;;;;;;;;18.50;95.60;;;;;;4201876;28;20086;-50
2023/10/10 08:18:52;;;;;;;;;;;18.50;95.60;;;;;;4184232;28;20050;-48
2023/10/10 08:21:36;;;;;;;;;;;18.50;95.70;;;;;;4200067;28;19979;-49
2023/10/10 08:24:17;;;;;;;;;;;18.50;95.70;;;;;;4192225;28;20020;-52
2023/10/10 08:27:01;;;;;;;;;;;18.50;95.70;;;;;;4187898;28;19931;-51
2023/10/10 08:29:45;;;;;;;;;;;18.50;95.70;;;;;;4181787;28;24312;-49
2023/10/10 08:32:26;;;;;;;;;;;18.50;95.70;;;;;;4198843;28;20042;-49
2023/10/10 08:35:10;;;;;;;;;;;18.50;95.70;;;;;;4188383;28;19934;-50
2023/10/10 08:37:51;;;;;;;;;;;18.50;95.70;;;;;;4201314;28;20409;-49
2023/10/10 08:40:34;;;;;;;;;;;18.50;95.80;;;;;;4197321;28;20286;-51
2023/10/10 08:43:15;;;;;;;;;;;18.50;95.80;;;;;;4194520;28;19939;-49
2023/10/10 08:45:56;;;;;;;;;;;18.50;95.70;;;;;;4201653;28;19931;-51
2023/10/10 08:48:38;;;;;;;;;;;18.50;95.80;;;;;;4196134;28;20005;-51
2023/10/10 08:51:20;;;;;;;;;;;18.50;95.80;;;;;;4196079;28;20291;-50
2023/10/10 08:54:02;;;;;;;;;;;18.50;95.80;;;;;;4194474;28;19994;-50
2023/10/10 08:56:53;;;;;;;;;;;18.50;95.80;;;;;;4198397;28;20374;-48
2023/10/10 08:59:35;;;;;;;;;;;18.50;95.90;;;;;;4199656;28;19939;-47
2023/10/10 09:02:17;;;;;;;;;;;18.50;95.90;;;;;;4184635;28;19935;-49
2023/10/10 09:04:58;;;;;;;;;;;18.50;95.80;;;;;;4194709;28;19977;-49
2023/10/10 09:07:43;;;;;;;;;;;18.50;95.90;;;;;;4194454;28;19932;-48
2023/10/10 09:10:28;;;;;;;;;;;18.50;95.90;;;;;;4199023;28;19931;-48
2023/10/10 09:13:09;;;;;;;;;;;18.60;96.00;;;;;;4196313;28;19946;-48
2023/10/10 09:15:57;;;;;;;;;;;18.60;96.00;;;;;;4192219;28;20085;-47
2023/10/10 09:18:38;;;;;;;;;;;18.60;96.00;;;;;;4201361;28;19931;-47
2023/10/10 09:21:19;;;;;;;;;;;18.60;96.40;;;;;;4197495;28;19931;-48
2023/10/10 09:24:26;;;;;;;;;;;18.60;96.00;;;;;;4196234;28;19935;-53
2023/10/10 09:27:21;;;;;;;;;;;18.70;96.00;;;;;;4199937;28;19935;-51
2023/10/10 09:30:10;;;;;;;;;;;18.70;96.00;;;;;;4197680;28;19945;-48
2023/10/10 09:32:57;;;;;;;;;;;18.70;96.40;;;;;;4203571;28;19935;-49
2023/10/10 09:35:39;;;;;;;;;;;18.80;96.00;;;;;;4200292;28;20294;-48
2023/10/10 09:38:22;;;;;;;;;;;18.80;95.90;;;;;;4196443;28;20465;-48
2023/10/10 09:41:14;;;;;;;;;;;18.80;95.90;;;;;;4192955;28;19935;-49
2023/10/10 09:44:27;;;;;;;;;;;18.80;95.80;;;;;;4201933;28;20674;-50
2023/10/10 09:47:36;;;;;;;;;;;18.80;95.80;;;;;;4202152;28;19977;-47
2023/10/10 09:53:21;;;;;;;;;;;18.90;95.70;;;;;;4195297;28;19996;-47
2023/10/10 09:56:08;;;;;;;;;;;18.90;96.00;;;;;;4203156;28;20026;-49
2023/10/10 09:58:53;;;;;;;;;;;18.90;95.60;;;;;;4193128;28;19931;-47
2023/10/10 10:01:44;;;;;;;;;;;18.90;95.60;;;;;;4197113;28;19998;-48
2023/10/10 10:04:28;;;;;;;;;;;19.00;95.60;;;;;;4197219;28;19939;-49
2023/10/10 10:07:19;;;;;;;;;;;19.00;95.50;;;;;;4197765;28;20113;-47
2023/10/10 10:10:16;;;;;;;;;;;19.00;95.50;;;;;;4202816;28;20345;-48
2023/10/10 10:13:22;;;;;;;;;;;19.00;95.40;;;;;;4201294;28;20433;-49
2023/10/10 10:16:09;;;;;;;;;;;19.10;95.30;;;;;;4183909;28;19931;-47
2023/10/10 10:18:52;;;;;;;;;;;19.10;95.30;;;;;;4194442;28;20685;-47
2023/10/10 10:21:51;;;;;;;;;;;19.10;95.30;;;;;;4194602;28;19931;-50
2023/10/10 10:24:33;;;;;;;;;;;19.10;95.20;;;;;;4199957;28;19935;-49
2023/10/10 10:27:24;;;;;;;;;;;19.10;95.20;;;;;;4198954;28;19954;-50
2023/10/10 10:30:30;;;;;;;;;;;19.10;95.20;;;;;;4199242;28;22137;-48
2023/10/10 10:33:11;;;;;;;;;;;19.20;95.20;;;;;;4201775;28;19931;-54
2023/10/10 10:36:14;;;;;;;;;;;19.20;95.10;;;;;;4190995;28;20066;-49
2023/10/10 10:41:59;;;;;;;;;;;19.20;95.10;;;;;;4197011;28;19935;-50
2023/10/10 10:44:53;;;;;;;;;;;19.30;95.00;;;;;;4192088;28;20054;-48
2023/10/10 10:47:45;;;;;;;;;;;19.30;94.90;;;;;;4200792;28;20393;-49
2023/10/10 10:50:42;;;;;;;;;;;19.30;94.90;;;;;;4200042;28;19931;-48
2023/10/10 10:53:33;;;;;;;;;;;19.30;94.80;;;;;;4202720;28;19935;-51
2023/10/10 10:59:19;;;;;;;;;;;19.40;95.10;;;;;;4197646;28;20597;-49
2023/10/10 11:02:00;;;;;;;;;;;19.40;94.70;;;;;;4197554;28;19939;-49
2023/10/10 11:04:44;;;;;;;;;;;19.40;94.60;;;;;;4195385;28;19935;-49
2023/10/10 11:07:41;;;;;;;;;;;19.50;94.60;;;;;;4202999;28;19978;-51
2023/10/10 11:10:36;;;;;;;;;;;19.50;94.60;;;;;;4199704;28;19934;-48
2023/10/10 11:13:17;;;;;;;;;;;19.50;94.50;;;;;;4200050;28;19931;-52
2023/10/10 11:16:10;;;;;;;;;;;19.50;94.40;;;;;;4202572;28;19931;-49
2023/10/10 11:18:57;;;;;;;;;;;19.60;94.40;;;;;;4194778;28;20093;-48
2023/10/10 11:21:47;;;;;;;;;;;19.60;94.30;;;;;;4193858;28;20382;-49
2023/10/10 11:24:30;;;;;;;;;;;19.70;94.30;;;;;;4194928;28;19952;-49
2023/10/10 11:27:21;;;;;;;;;;;19.70;94.20;;;;;;4200639;28;19932;-48
2023/10/10 11:30:08;;;;;;;;;;;19.70;94.10;;;;;;4200454;28;20021;-48
2023/10/10 11:32:49;;;;;;;;;;;19.70;94.10;;;;;;4197229;28;19935;-53
2023/10/10 11:35:31;;;;;;;;;;;19.80;94.10;;;;;;4195992;28;19931;-50
2023/10/10 11:38:33;;;;;;;;;;;19.80;94.00;;;;;;4201674;28;19935;-50
2023/10/10 11:41:28;;;;;;;;;;;19.80;94.00;;;;;;4193976;28;19935;-51
2023/10/10 11:44:09;;;;;;;;;;;19.80;94.00;;;;;;4200820;28;19960;-50
2023/10/10 11:47:02;;;;;;;;;;;19.80;94.00;;;;;;4199776;28;20527;-48
2023/10/10 11:49:43;;;;;;;;;;;19.90;94.00;;;;;;4198752;28;19934;-49
2023/10/10 11:52:27;;;;;;;;;;;19.90;93.90;;;;;;4195846;28;19931;-50
2023/10/10 11:55:09;;;;;;;;;;;19.90;93.90;;;;;;4193645;28;19935;-48
2023/10/10 11:57:52;;;;;;;;;;;19.90;94.30;;;;;;4193154;28;20066;-50
2023/10/10 12:00:42;;;;;;;;;;;20.00;93.90;;;;;;4198269;28;19931;-49
2023/10/10 12:03:41;;;;;;;;;;;20.00;93.80;;;;;;4202348;28;19963;-50
2023/10/10 12:06:26;;;;;;;;;;;20.00;93.70;;;;;;4196926;28;19943;-47
2023/10/10 12:09:08;;;;;;;;;;;20.00;93.60;;;;;;4203087;28;19951;-51
2023/10/10 12:11:49;;;;;;;;;;;20.10;93.60;;;;;;4194388;28;19931;-47
2023/10/10 12:14:32;;;;;;;;;;;20.10;93.50;;;;;;4188675;28;20028;-48
2023/10/10 12:17:14;;;;;;;;;;;20.10;93.50;;;;;;4199347;28;19935;-48
2023/10/10 12:19:56;;;;;;;;;;;20.10;93.80;;;;;;4196661;28;19935;-47
2023/10/10 12:22:38;;;;;;;;;;;20.10;93.40;;;;;;4194172;28;19958;-49
2023/10/10 12:25:18;;;;;;;;;;;20.10;93.40;;;;;;4201152;28;19953;-47
2023/10/10 12:28:00;;;;;;;;;;;20.20;93.80;;;;;;4189320;28;20314;-50
2023/10/10 12:30:42;;;;;;;;;;;20.20;93.40;;;;;;4191630;28;20073;-50
2023/10/10 12:33:23;;;;;;;;;;;20.20;93.40;;;;;;4189603;28;20054;-49
2023/10/10 12:36:09;;;;;;;;;;;20.20;93.40;;;;;;4201663;28;19938;-48
2023/10/10 12:38:50;;;;;;;;;;;20.30;93.40;;;;;;4201823;28;21892;-49
2023/10/10 12:41:35;;;;;;;;;;;20.30;93.50;;;;;;4192446;28;19931;-51
2023/10/10 12:44:16;;;;;;;;;;;20.30;93.50;;;;;;4190063;28;20845;-49
2023/10/10 12:46:59;;;;;;;;;;;20.30;93.50;;;;;;4195633;28;20045;-47
2023/10/10 12:49:44;;;;;;;;;;;20.30;93.50;;;;;;4187827;28;19931;-49
2023/10/10 12:52:34;;;;;;;;;;;20.40;93.50;;;;;;4197600;28;19974;-51
2023/10/10 12:55:17;;;;;;;;;;;20.40;93.50;;;;;;4198214;28;19935;-50
2023/10/10 12:58:00;;;;;;;;;;;20.40;94.00;;;;;;4195655;28;19940;-48
2023/10/10 13:00:49;;;;;;;;;;;20.50;93.70;;;;;;4198413;28;19935;-51
2023/10/10 13:03:31;;;;;;;;;;;20.50;93.70;;;;;;4201972;28;19931;-48
2023/10/10 13:06:12;;;;;;;;;;;20.50;93.70;;;;;;4189377;28;19935;-50
2023/10/10 13:08:56;;;;;;;;;;;20.50;93.70;;;;;;4187426;28;19939;-49
2023/10/10 13:11:43;;;;;;;;;;;20.50;93.70;;;;;;4196746;28;21626;-50
2023/10/10 13:14:29;;;;;;;;;;;20.60;93.80;;;;;;4204076;28;20061;-52
2023/10/10 13:20:11;;;;;;;;;;;20.60;93.70;;;;;;4203589;28;19935;-49
2023/10/10 13:22:52;;;;;;;;;;;20.60;93.70;;;;;;4200965;28;20266;-52
2023/10/10 13:25:37;;;;;;;;;;;20.60;94.10;;;;;;4197513;28;19935;-48
2023/10/10 13:28:19;;;;;;;;;;;20.60;93.70;;;;;;4202622;28;20020;-50
2023/10/10 13:31:02;;;;;;;;;;;20.60;93.80;;;;;;4201111;28;19974;-50
2023/10/10 13:33:43;;;;;;;;;;;20.60;93.80;;;;;;4197624;28;19939;-52
2023/10/10 13:36:25;;;;;;;;;;;20.60;93.80;;;;;;4196689;28;19966;-53
2023/10/10 13:39:09;;;;;;;;;;;20.60;93.80;;;;;;4183489;28;20439;-51
2023/10/10 13:41:50;;;;;;;;;;;20.60;93.90;;;;;;4200810;28;20605;-49
2023/10/10 13:44:33;;;;;;;;;;;20.60;94.00;;;;;;4199120;28;19942;-50
2023/10/10 13:47:14;;;;;;;;;;;20.60;94.00;;;;;;4196495;28;19935;-49
2023/10/10 13:50:28;;;;;;;;;;;20.60;94.00;;;;;;4199998;28;20073;-49
2023/10/10 13:53:04;;;;;;;;;;;20.60;94.00;;;;;;4187206;28;20390;-53
2023/10/10 13:55:46;;;;;;;;;;;20.60;94.00;;;;;;4200022;28;20004;-49
2023/10/10 13:58:26;;;;;;;;;;;20.60;94.10;;;;;;4199489;28;19934;-49
2023/10/10 14:01:18;;;;;;;;;;;20.60;94.10;;;;;;4196226;28;19946;-49
2023/10/10 14:04:03;;;;;;;;;;;20.60;94.50;;;;;;4195553;28;19935;-50
2023/10/10 14:06:48;;;;;;;;;;;20.50;94.00;;;;;;4203586;28;19935;-48
2023/10/10 14:09:32;;;;;;;;;;;20.50;94.00;;;;;;4200675;28;19931;-48
2023/10/10 14:12:21;;;;;;;;;;;20.50;93.90;;;;;;4195482;28;20286;-48
2023/10/10 14:15:02;;;;;;;;;;;20.50;94.30;;;;;;4197549;28;19931;-48
2023/10/10 14:17:43;;;;;;;;;;;20.50;93.80;;;;;;4202644;28;19931;-49
2023/10/10 14:20:24;;;;;;;;;;;20.50;93.80;;;;;;4201168;28;19934;-50
2023/10/10 14:23:05;;;;;;;;;;;20.50;93.80;;;;;;4197413;28;20034;-49
2023/10/10 14:25:48;;;;;;;;;;;20.50;93.70;;;;;;4183973;28;20011;-51
2023/10/10 14:28:29;;;;;;;;;;;20.50;93.70;;;;;;4196257;28;20710;-53
2023/10/10 14:31:12;;;;;;;;;;;20.50;94.00;;;;;;4199960;28;20013;-53
2023/10/10 14:33:54;;;;;;;;;;;20.50;93.70;;;;;;4200036;28;19942;-53
2023/10/10 14:36:39;;;;;;;;;;;20.50;93.70;;;;;;4196417;28;19935;-52
2023/10/10 14:39:31;;;;;;;;;;;20.50;93.70;;;;;;4202715;28;20326;-48
2023/10/10 14:42:14;;;;;;;;;;;20.50;93.70;;;;;;4202941;28;19947;-50
2023/10/10 14:44:55;;;;;;;;;;;20.50;93.70;;;;;;4192684;28;19935;-52
2023/10/10 14:47:39;;;;;;;;;;;20.50;93.60;;;;;;4196589;28;19934;-49
2023/10/10 14:50:23;;;;;;;;;;;20.50;93.60;;;;;;4203132;28;19951;-49
2023/10/10 14:53:08;;;;;;;;;;;20.50;93.70;;;;;;4201028;28;19931;-48
2023/10/10 14:55:51;;;;;;;;;;;20.50;93.60;;;;;;4186771;28;19931;-53
2023/10/10 14:58:35;;;;;;;;;;;20.50;93.70;;;;;;4197101;28;20077;-51
2023/10/10 15:01:20;;;;;;;;;;;20.50;93.70;;;;;;4196040;28;19932;-49
2023/10/10 15:04:02;;;;;;;;;;;20.50;93.70;;;;;;4201354;28;20058;-49
2023/10/10 15:06:43;;;;;;;;;;;20.50;93.70;;;;;;4199265;28;19936;-52
2023/10/10 15:09:25;;;;;;;;;;;20.50;93.70;;;;;;4195822;28;19935;-50
2023/10/10 15:12:08;;;;;;;;;;;20.50;93.60;;;;;;4190703;28;19932;-50
2023/10/10 15:14:52;;;;;;;;;;;20.50;93.60;;;;;;4192981;28;19996;-49
2023/10/10 15:17:32;;;;;;;;;;;20.50;94.00;;;;;;4191464;28;20405;-48
2023/10/10 15:20:14;;;;;;;;;;;20.50;93.60;;;;;;4188417;28;19935;-51
2023/10/10 15:22:55;;;;;;;;;;;20.50;93.60;;;;;;4200975;28;20002;-48
2023/10/10 15:25:36;;;;;;;;;;;20.50;93.60;;;;;;4199436;28;20429;-49
2023/10/10 15:28:17;;;;;;;;;;;20.50;93.60;;;;;;4196309;28;19954;-51
2023/10/10 15:31:00;;;;;;;;;;;20.50;93.60;;;;;;4193721;28;19977;-53
2023/10/10 15:33:43;;;;;;;;;;;20.50;93.60;;;;;;4199670;28;20433;-49
2023/10/10 15:36:24;;;;;;;;;;;20.50;93.70;;;;;;4197715;28;19961;-49
2023/10/10 15:39:09;;;;;;;;;;;20.50;93.60;;;;;;4188474;28;20600;-48
2023/10/10 15:41:51;;;;;;;;;;;20.40;93.90;;;;;;4201235;28;19935;-49
2023/10/10 15:44:32;;;;;;;;;;;20.50;93.60;;;;;;4187104;28;19976;-50
2023/10/10 15:47:14;;;;;;;;;;;20.40;93.90;;;;;;4197203;28;20053;-47
2023/10/10 15:50:00;;;;;;;;;;;20.40;93.50;;;;;;4187235;28;20044;-49
2023/10/10 15:52:41;;;;;;;;;;;20.40;93.40;;;;;;4202435;28;20062;-49
2023/10/10 15:55:24;;;;;;;;;;;20.40;93.40;;;;;;4198867;28;19950;-48
2023/10/10 15:58:07;;;;;;;;;;;20.50;93.40;;;;;;4196476;28;20314;-49
2023/10/10 16:00:48;;;;;;;;;;;20.40;93.80;;;;;;4182388;28;19931;-48
2023/10/10 16:03:31;;;;;;;;;;;20.40;93.30;;;;;;4188840;28;19930;-48
2023/10/10 16:06:13;;;;;;;;;;;20.40;93.30;;;;;;4198769;28;19931;-49
2023/10/10 16:08:54;;;;;;;;;;;20.40;93.30;;;;;;4195147;28;19935;-49
2023/10/10 16:11:35;;;;;;;;;;;20.40;93.20;;;;;;4193735;28;19950;-49
2023/10/10 16:14:18;;;;;;;;;;;20.40;93.20;;;;;;4199541;28;19981;-48
2023/10/10 16:17:02;;;;;;;;;;;20.40;93.20;;;;;;4197420;28;19935;-48
2023/10/10 16:19:45;;;;;;;;;;;20.40;93.20;;;;;;4195013;28;19969;-50
2023/10/10 16:22:27;;;;;;;;;;;20.30;93.20;;;;;;4200907;28;19935;-49
2023/10/10 16:25:13;;;;;;;;;;;20.30;93.20;;;;;;4201426;28;20062;-53
2023/10/10 16:27:57;;;;;;;;;;;20.30;93.50;;;;;;4190035;28;20065;-49
2023/10/10 16:30:39;;;;;;;;;;;20.30;93.20;;;;;;4198504;28;19942;-48
2023/10/10 16:33:23;;;;;;;;;;;20.30;93.20;;;;;;4202318;28;20275;-48
2023/10/10 16:36:13;;;;;;;;;;;20.30;93.20;;;;;;4193663;28;19931;-48
2023/10/10 16:38:55;;;;;;;;;;;20.30;93.60;;;;;;4196465;28;19931;-50
2023/10/10 16:41:36;;;;;;;;;;;20.30;93.20;;;;;;4194112;28;19980;-50
2023/10/10 16:44:17;;;;;;;;;;;20.30;93.20;;;;;;4201957;28;19931;-49
2023/10/10 16:47:00;;;;;;;;;;;20.30;93.20;;;;;;4199469;28;19984;-49
2023/10/10 16:49:41;;;;;;;;;;;20.30;93.20;;;;;;4196474;28;20403;-48
2023/10/10 16:52:25;;;;;;;;;;;20.20;93.20;;;;;;4187992;28;20062;-48
2023/10/10 16:55:10;;;;;;;;;;;20.20;93.20;;;;;;4199000;28;20380;-50
2023/10/10 16:57:51;;;;;;;;;;;20.20;93.20;;;;;;4197702;28;20373;-52
2023/10/10 17:00:34;;;;;;;;;;;20.20;93.30;;;;;;4185640;28;19950;-49
2023/10/10 17:03:15;;;;;;;;;;;20.20;93.40;;;;;;4183281;28;20290;-48
2023/10/10 17:05:57;;;;;;;;;;;20.30;93.40;;;;;;4199137;28;20016;-51
2023/10/10 17:08:40;;;;;;;;;;;20.30;93.40;;;;;;4192807;28;19935;-49
2023/10/10 17:11:21;;;;;;;;;;;20.30;93.40;;;;;;4198853;28;19996;-47
2023/10/10 17:14:03;;;;;;;;;;;20.30;93.30;;;;;;4199346;28;20390;-49
2023/10/10 17:16:44;;;;;;;;;;;20.40;93.40;;;;;;4198161;28;20324;-53
2023/10/10 17:19:25;;;;;;;;;;;20.40;93.30;;;;;;4194902;28;20421;-49
2023/10/10 17:22:06;;;;;;;;;;;20.40;93.30;;;;;;4191789;28;19947;-49
2023/10/10 17:24:48;;;;;;;;;;;20.40;93.20;;;;;;4199583;28;19972;-49
2023/10/10 17:27:33;;;;;;;;;;;20.50;93.20;;;;;;4192148;28;20452;-49
2023/10/10 17:30:14;;;;;;;;;;;20.50;93.10;;;;;;4181993;28;19974;-52
2023/10/10 17:32:55;;;;;;;;;;;20.50;93.00;;;;;;4197427;28;19943;-52
2023/10/10 17:35:36;;;;;;;;;;;20.60;93.00;;;;;;4199636;28;20385;-52
2023/10/10 17:38:18;;;;;;;;;;;20.60;93.00;;;;;;4171299;28;19972;-49
2023/10/10 17:41:02;;;;;;;;;;;20.60;92.90;;;;;;4199650;28;19935;-52
2023/10/10 17:43:42;;;;;;;;;;;20.60;92.90;;;;;;4191640;28;20050;-50
2023/10/10 17:46:23;;;;;;;;;;;20.60;92.80;;;;;;4197753;28;19931;-48
2023/10/10 17:49:04;;;;;;;;;;;20.60;93.20;;;;;;4186358;28;20271;-49
2023/10/10 17:51:46;;;;;;;;;;;20.70;92.80;;;;;;4182770;28;19935;-48
2023/10/10 17:54:28;;;;;;;;;;;20.70;92.70;;;;;;4201077;28;20457;-49
2023/10/10 17:57:11;;;;;;;;;;;20.70;92.60;;;;;;4187281;28;19931;-48
2023/10/10 17:59:52;;;;;;;;;;;20.70;92.50;;;;;;4195634;28;19931;-47
2023/10/10 18:02:33;;;;;;;;;;;20.60;92.50;;;;;;4195449;28;19936;-50